• Join FlightAware (Why Join?)
  • Login
  • US Flag 
04:00AM EDT


 

Airport Tracker/Info


-or-


 

Live Flight TrackerFlight Track Log ✈ OPT429 ✈ 12-Jul-2014 ✈ KSFO - 6S0

Flight Track Log - Related Links

Times and Time Zones

All times are in EDT time to prevent confusion due to time zone crossing. See the OPT429 flight status page for this flight to view local times or setup timezone preferences in your user account.

Time Position Orientation Groundspeed Altitude Reporting Facility
EDT Latitude Longitude Course Direction KTS MPH feet Rate Location/Type
10:10AM 37.6500 -122.3833 58° Northeast 187 215 2,800  Level Northern Cal TRACON
10:11AM 37.6833 -122.3167 58° Northeast 238 274 5,200 2,280 Climbing Northern Cal TRACON
10:12AM 37.7333 -122.2333 53° Northeast 321 369 7,400 2,460 Climbing Northern Cal TRACON
10:14AM 37.8314 -122.1400 37° Northeast 282 325 11,700 2,340 Climbing Oakland Center
10:15AM 37.8969 -122.0781 37° Northeast 289 333 13,700 1,920 Climbing Oakland Center
10:16AM 37.9683 -122.0103 37° Northeast 313 360 15,700 1,920 Climbing Oakland Center
10:17AM 38.0414 -121.9397 37° Northeast 325 374 17,700 1,860 Climbing Oakland Center
10:18AM 38.1164 -121.8681 37° Northeast 333 383 19,600 1,800 Climbing Oakland Center
10:19AM 38.1911 -121.7917 39° Northeast 340 391 21,400 1,320 Climbing Oakland Center
10:20AM 38.2633 -121.6967 46° Northeast 365 420 22,400 960 Climbing Oakland Center
10:21AM 38.3425 -121.5956 45° Northeast 395 455 23,400 960 Climbing Oakland Center
10:22AM 38.4247 -121.4892 45° Northeast 415 478 24,400 960 Climbing Oakland Center
10:23AM 38.5092 -121.3806 45° Northeast 427 491 25,400 1,080 Climbing Oakland Center
10:24AM 38.6131 -121.2433 46° Northeast 439 505 26,600 1,080 Climbing Oakland Center
10:25AM 38.7017 -121.1275 46° Northeast 456 525 27,600 960 Climbing Oakland Center
10:26AM 38.7914 -121.0100 46° Northeast 460 529 28,600 1,020 Climbing Oakland Center
10:27AM 38.8817 -120.8911 46° Northeast 461 531 29,700 1,020 Climbing Oakland Center
10:28AM 38.9739 -120.7694 46° Northeast 466 536 30,700 960 Climbing Oakland Center
10:29AM 39.0672 -120.6450 46° Northeast 475 547 31,700 960 Climbing Oakland Center
10:30AM 39.1617 -120.5175 46° Northeast 486 559 32,700 960 Climbing Oakland Center
10:31AM 39.2556 -120.3919 46° Northeast 486 559 33,700 960 Climbing Oakland Center
10:32AM 39.3511 -120.2631 46° Northeast 495 570 34,700 900 Climbing Oakland Center
10:33AM 39.4469 -120.1333 46° Northeast 495 570 35,600 1,140 Climbing Oakland Center
10:34AM 39.5469 -120.0019 45° Northeast 494 568 37,100 1,380 Climbing Oakland Center
10:35AM 39.6375 -119.8775 47° Northeast 479 551 38,500 1,140 Climbing Oakland Center
10:36AM 39.7278 -119.7547 46° Northeast 471 542 39,500 960 Climbing Oakland Center
10:37AM 39.8178 -119.6303 47° Northeast 470 541 40,500 720 Climbing Oakland Center
10:38AM 39.9244 -119.4839 46° Northeast 468 539 41,000 240 Climbing Oakland Center
10:39AM 40.0169 -119.3550 47° Northeast 479 551 41,000  Level Oakland Center
10:40AM 40.1108 -119.2250 47° Northeast 487 560 41,000  Level Oakland Center
10:41AM 40.2069 -119.0903 47° Northeast 502 578 41,000  Level Oakland Center
10:42AM 40.3033 -118.9556 47° Northeast 504 580 41,000  Level Oakland Center
10:43AM 40.3972 -118.8236 47° Northeast 499 574 41,000  Level Oakland Center
10:44AM 40.4881 -118.6953 47° Northeast 484 557 41,000  Level Oakland Center
10:45AM 40.5778 -118.5681 47° Northeast 478 550 41,000  Level Oakland Center
10:46AM 40.6678 -118.4397 47° Northeast 478 550 41,000  Level Oakland Center
10:47AM 40.7597 -118.3081 47° Northeast 478 550 41,000  Level Oakland Center
10:48AM 40.8611 -118.1608 48° Northeast 479 551 41,000  Level Oakland Center
10:49AM 40.9506 -118.0325 47° Northeast 487 560 41,000  Level Oakland Center
10:50AM 41.0386 -117.9042 48° Northeast 488 562 41,000  Level Oakland Center
10:51AM 41.1419 -117.7542 48° Northeast 488 562 41,000  Level Oakland Center
10:52AM 41.2300 -117.6281 47° Northeast 488 562 41,000  Level Oakland Center
10:54AM 41.3606 -117.4347 48° Northeast 488 562 41,000  Level Salt Lake Center
10:55AM 41.4617 -117.2831 48° Northeast 488 562 41,000  Level Salt Lake Center
10:56AM 41.5478 -117.1525 49° Northeast 488 562 41,000  Level Salt Lake Center
10:57AM 41.6344 -117.0258 48° Northeast 486 559 41,000  Level Salt Lake Center
10:58AM 41.7339 -116.8744 49° Northeast 486 559 41,000  Level Salt Lake Center
10:59AM 41.8200 -116.7414 49° Northeast 488 562 41,000  Level Salt Lake Center
11:00AM 41.9189 -116.5928 48° Northeast 482 555 41,000  Level Salt Lake Center
11:01AM 42.0042 -116.4636 48° Northeast 482 555 41,000  Level Salt Lake Center
11:02AM 42.0989 -116.3144 49° Northeast 481 554 41,000  Level Salt Lake Center
11:03AM 42.1872 -116.1794 49° Northeast 482 555 41,000  Level Salt Lake Center
11:04AM 42.2750 -116.0450 49° Northeast 479 551 41,000  Level Salt Lake Center
11:05AM 42.3617 -115.9100 49° Northeast 479 551 41,000  Level Salt Lake Center
11:06AM 42.4656 -115.7464 49° Northeast 479 551 41,000  Level Salt Lake Center
11:07AM 42.5517 -115.6106 49° Northeast 478 550 41,000  Level Salt Lake Center
11:08AM 42.6381 -115.4747 49° Northeast 478 550 41,000  Level Salt Lake Center
11:09AM 42.7239 -115.3392 49° Northeast 477 549 41,000  Level Salt Lake Center
11:11AM 42.8100 -115.2025 49° Northeast 477 549 41,000  Level Salt Lake Center
11:12AM 42.9128 -115.0389 49° Northeast 477 549 41,000  Level Salt Lake Center
11:13AM 42.9978 -114.9017 50° Northeast 476 548 41,000  Level Salt Lake Center
11:14AM 43.0831 -114.7644 50° Northeast 476 548 41,000  Level Salt Lake Center
11:15AM 43.1694 -114.6250 50° Northeast 480 552 41,000  Level Salt Lake Center
11:16AM 43.2542 -114.4861 50° Northeast 479 551 41,000  Level Salt Lake Center
11:17AM 43.3397 -114.3472 50° Northeast 479 551 41,000  Level Salt Lake Center
11:18AM 43.4411 -114.1794 50° Northeast 478 550 41,000  Level Salt Lake Center
11:19AM 43.5256 -114.0394 50° Northeast 478 550 41,000  Level Salt Lake Center
11:20AM 43.6092 -113.9003 50° Northeast 476 548 41,000  Level Salt Lake Center
11:21AM 43.6950 -113.7578 50° Northeast 474 545 41,000  Level Salt Lake Center
11:22AM 43.7786 -113.6189 50° Northeast 472 543 41,000  Level Salt Lake Center
11:23AM 43.8592 -113.4817 51° Northeast 463 533 41,000  Level Salt Lake Center
11:24AM 43.9550 -113.3175 51° Northeast 460 529 41,000  Level Salt Lake Center
11:25AM 44.0339 -113.1814 51° Northeast 456 525 41,000  Level Salt Lake Center
11:26AM 44.1128 -113.0453 51° Northeast 455 524 41,000  Level Salt Lake Center
11:27AM 44.1900 -112.9114 51° Northeast 451 519 41,000  Level Salt Lake Center
11:28AM 44.2700 -112.7775 50° Northeast 450 518 41,000  Level Salt Lake Center
11:29AM 44.3469 -112.6425 51° Northeast 446 513 41,000  Level Salt Lake Center
11:30AM 44.4406 -112.4769 52° Northeast 451 519 41,000  Level Salt Lake Center
11:31AM 44.5192 -112.3394 51° Northeast 451 519 41,000  Level Salt Lake Center
11:32AM 44.5986 -112.2014 51° Northeast 452 520 41,000 -540 Level Salt Lake Center
11:33AM 44.6783 -112.0608 51° Northeast 454 522 39,900 -1,800 Descending Salt Lake Center
11:34AM 44.7619 -111.9194 50° Northeast 465 535 37,400 -2,640 Descending Salt Lake Center
11:35AM 44.8286 -111.8067 50° Northeast 476 548 35,300 -2,520 Descending Salt Lake Center
11:35AM 44.8467 -111.7733 53° Northeast 473 544 34,800 -2,460 Descending Salt Lake Center
11:36AM 44.8872 -111.7019 51° Northeast 478 550 33,600 -2,460 Descending Salt Lake Center
11:36AM 44.9294 -111.6275 51° Northeast 474 545 32,300 -2,460 Descending Salt Lake Center
11:37AM 44.9694 -111.5581 51° Northeast 470 541 31,100 -2,340 Descending Salt Lake Center
11:37AM 45.0083 -111.4906 51° Northeast 449 517 29,900 -2,400 Descending Salt Lake Center
11:38AM 45.0458 -111.4261 51° Northeast 427 491 28,700 -2,640 Descending Salt Lake Center
11:38AM 45.0964 -111.3358 52° Northeast 422 486 27,200 -2,280 Descending Salt Lake Center
11:39AM 45.1131 -111.3039 54° Northeast 412 474 26,700 -2,280 Descending Salt Lake Center
11:39AM 45.1722 -111.2019 51° Northeast 427 491 24,900 -2,400 Descending Salt Lake Center
11:40AM 45.1892 -111.1711 52° Northeast 427 491 24,300 -2,280 Descending Salt Lake Center
11:41AM 45.2486 -111.0661 51° Northeast 431 496 22,600 -2,280 Descending Salt Lake Center
11:41AM 45.2725 -111.0250 50° Northeast 434 499 21,800 -2,460 Descending Salt Lake Center
11:42AM 45.3417 -110.9008 52° Northeast 430 495 19,700 -2,280 Descending Salt Lake Center
11:43AM 45.4019 -110.7925 52° Northeast 417 480 17,800 -2,100 Descending Salt Lake Center
11:43AM 45.4175 -110.7606 55° Northeast 416 479 17,400 -2,160 Descending Salt Lake Center
11:44AM 45.4731 -110.6631 51° Northeast 412 474 15,600 -2,340 Descending Salt Lake Center
11:44AM 45.4903 -110.6339 50° Northeast 405 466 15,100 -1,980 Descending Salt Lake Center
11:45AM 45.5433 -110.5417 51° Northeast 387 445 13,600 -1,980 Descending Salt Lake Center
11:45AM 45.5561 -110.5164 54° Northeast 381 438 13,100 -600 Descending Salt Lake Center
11:46AM 45.6044 -110.4331 50° Northeast 364 419 13,000 -240 Descending Salt Lake Center
11:46AM 45.6175 -110.4072 54° Northeast 354 407 12,900 -1,020 Descending Salt Lake Center
11:47AM 45.6586 -110.3322 52° Northeast 336 387 12,000 -1,080 Descending Salt Lake Center
11:48AM 45.7047 -110.2433 53° Northeast 297 342 10,900 -1,440 Descending Salt Lake Center
11:49AM 45.7522 -110.1569 52° Northeast 271 312 9,100 -1,500 Descending Salt Lake Center
11:50AM 45.7969 -110.1058 39° Northeast 216 249 7,900 -1,200 Descending Salt Lake Center
11:52AM 45.8064 -109.9783 54° Northeast  Level Estimated
11:59AM 45.8064 -109.9783 54° Northeast  Level Estimated
12:00PM 45.8064 -109.9783 54° Northeast  Level Estimated
12:01PM 45.8064 -109.9783 54° Northeast  Level Estimated
12:02PM 45.8064 -109.9783 54° Northeast  Level Estimated
12:03PM 45.8064 -109.9783 54° Northeast  Level Estimated
12:04PM 45.8064 -109.9783 54° Northeast  Level Estimated
12:05PM 45.8064 -109.9783 54° Northeast  Level Estimated
12:06PM 45.8064 -109.9783 54° Northeast  Level Estimated
12:07PM 45.8064 -109.9783 54° Northeast  Level Estimated
12:08PM 45.8064 -109.9783 54° Northeast  Level Estimated
12:09PM 45.8064 -109.9783 54° Northeast  Level Estimated
12:10PM 45.8064 -109.9783 54° Northeast  Level Estimated